createdAt,value
2022-12-04T00:01:14.845Z,11.55
2022-12-04T00:03:41.988Z,11.80
2022-12-04T00:06:12.388Z,12.52
2022-12-04T00:08:39.777Z,11.70
2022-12-04T00:11:07.986Z,13.45
2022-12-04T00:13:35.573Z,11.43
2022-12-04T00:16:05.307Z,11.40
2022-12-04T00:18:32.696Z,12.13
2022-12-04T00:21:00.388Z,10.60
2022-12-04T00:23:28.732Z,11.70
2022-12-04T00:26:00.933Z,11.32
2022-12-04T00:28:28.045Z,12.10
2022-12-04T00:30:55.102Z,11.52
2022-12-04T00:33:23.165Z,11.38
2022-12-04T00:35:57.492Z,12.10
2022-12-04T00:38:25.030Z,11.93
2022-12-04T00:40:53.863Z,11.43
2022-12-04T00:43:21.370Z,11.48
2022-12-04T00:45:48.423Z,12.20
2022-12-04T00:48:15.568Z,10.70
2022-12-04T00:50:42.627Z,10.90
2022-12-04T00:53:09.707Z,11.18
2022-12-04T00:55:38.411Z,10.77
2022-12-04T00:58:07.916Z,11.68
2022-12-04T01:00:35.186Z,11.85
2022-12-04T01:03:02.435Z,13.43
2022-12-04T01:05:29.504Z,13.27
2022-12-04T01:07:56.830Z,12.32
2022-12-04T01:10:24.648Z,12.52
2022-12-04T01:12:53.908Z,11.30
2022-12-04T01:15:22.249Z,12.23
2022-12-04T01:17:49.211Z,13.63
2022-12-04T01:20:17.258Z,13.25
2022-12-04T01:22:44.237Z,14.35
2022-12-04T01:25:11.612Z,11.82
2022-12-04T01:27:38.775Z,13.80
2022-12-04T01:30:07.249Z,12.63
2022-12-04T01:32:35.541Z,12.50
2022-12-04T01:35:02.540Z,12.32
2022-12-04T01:37:31.265Z,12.18
2022-12-04T01:39:58.497Z,12.68
2022-12-04T01:42:26.091Z,12.45
2022-12-04T01:45:33.967Z,11.75
2022-12-04T01:48:09.110Z,13.40
2022-12-04T01:50:36.361Z,11.63
2022-12-04T01:53:03.324Z,12.82
2022-12-04T01:55:31.361Z,12.85
2022-12-04T01:57:59.047Z,12.77
2022-12-04T02:00:26.025Z,12.20
2022-12-04T02:02:53.271Z,12.05
2022-12-04T02:05:23.036Z,13.80
2022-12-04T02:07:55.807Z,12.85
2022-12-04T02:10:29.017Z,14.15
2022-12-04T02:13:04.082Z,14.25
2022-12-04T02:15:36.866Z,13.93
2022-12-04T02:18:10.609Z,13.18
2022-12-04T02:20:45.537Z,10.57
2022-12-04T02:23:50.901Z,11.15
2022-12-04T02:26:33.433Z,11.07
2022-12-04T02:29:08.150Z,10.32
2022-12-04T02:31:42.077Z,11.02
2022-12-04T02:34:14.956Z,10.25
2022-12-04T02:36:47.946Z,10.45
2022-12-04T02:39:25.330Z,11.35
2022-12-04T02:41:57.938Z,10.93
2022-12-04T02:44:30.968Z,10.68
2022-12-04T02:47:02.392Z,11.15
2022-12-04T02:49:34.814Z,9.85
2022-12-04T02:52:06.112Z,9.80
2022-12-04T02:54:37.225Z,9.88
2022-12-04T02:57:10.041Z,11.30
2022-12-04T02:59:41.153Z,10.40
2022-12-04T03:02:13.906Z,11.25
2022-12-04T03:04:42.511Z,9.98
2022-12-04T03:07:13.914Z,9.77
2022-12-04T03:09:44.277Z,10.07
2022-12-04T03:12:16.588Z,11.35
2022-12-04T03:14:51.272Z,11.02
2022-12-04T03:17:31.474Z,10.73
2022-12-04T03:20:01.081Z,9.75
2022-12-04T03:22:29.629Z,10.88
2022-12-04T03:24:57.346Z,10.57
2022-12-04T03:27:30.482Z,10.60
2022-12-04T03:30:03.317Z,9.55
2022-12-04T03:32:33.845Z,9.45
2022-12-04T03:35:05.008Z,10.32
2022-12-04T03:37:37.554Z,11.25
2022-12-04T03:40:11.952Z,10.50
2022-12-04T03:42:44.311Z,10.10
2022-12-04T03:45:20.284Z,9.48
2022-12-04T03:47:55.481Z,10.10
2022-12-04T03:50:28.846Z,9.77
2022-12-04T03:53:05.503Z,9.98
2022-12-04T03:55:36.493Z,9.40
2022-12-04T03:58:08.281Z,9.95
2022-12-04T04:00:41.523Z,9.73
2022-12-04T04:03:12.884Z,10.10
2022-12-04T04:05:45.135Z,9.40
2022-12-04T04:08:31.158Z,10.07
2022-12-04T04:11:05.433Z,9.90
2022-12-04T04:13:56.188Z,9.07
2022-12-04T04:16:47.292Z,9.15
2022-12-04T04:19:34.777Z,7.13
2022-12-04T04:22:22.821Z,7.88
2022-12-04T04:24:55.145Z,8.20
2022-12-04T04:27:22.274Z,7.35
2022-12-04T04:29:52.564Z,8.70
2022-12-04T04:32:28.972Z,8.43
2022-12-04T04:35:01.962Z,7.57
2022-12-04T04:37:35.410Z,6.72
2022-12-04T04:40:11.853Z,6.25
2022-12-04T04:42:44.778Z,6.85
2022-12-04T04:45:15.865Z,6.25
2022-12-04T04:47:48.868Z,5.93
2022-12-04T04:50:18.019Z,6.82
2022-12-04T04:52:49.248Z,6.82
2022-12-04T04:55:17.881Z,6.25
2022-12-04T04:57:44.844Z,6.93
2022-12-04T05:00:16.620Z,5.90
2022-12-04T05:02:45.383Z,5.60
2022-12-04T05:05:13.196Z,6.93
2022-12-04T05:07:40.338Z,7.32
2022-12-04T05:10:09.316Z,7.30
2022-12-04T05:12:36.412Z,7.35
2022-12-04T05:15:03.632Z,7.93
2022-12-04T05:17:30.617Z,7.75
2022-12-04T05:19:59.369Z,7.47
2022-12-04T05:22:29.017Z,7.32
2022-12-04T05:24:56.255Z,7.65
2022-12-04T05:27:25.454Z,8.25
2022-12-04T05:29:54.396Z,7.32
2022-12-04T05:32:22.309Z,7.38
2022-12-04T05:34:49.674Z,7.18
2022-12-04T05:37:18.525Z,8.20
2022-12-04T05:39:46.001Z,7.40
2022-12-04T05:42:13.276Z,7.60
2022-12-04T05:44:40.235Z,7.43
2022-12-04T05:47:07.722Z,7.82
2022-12-04T05:49:35.422Z,7.65
2022-12-04T05:52:03.574Z,7.07
2022-12-04T05:54:32.121Z,7.95
2022-12-04T05:56:59.477Z,7.68
2022-12-04T05:59:26.498Z,7.55
2022-12-04T06:01:53.825Z,7.18
2022-12-04T06:04:21.092Z,7.47
2022-12-04T06:06:48.116Z,6.75
2022-12-04T06:09:15.175Z,15.82
2022-12-04T06:11:43.601Z,12.18
2022-12-04T06:14:13.323Z,15.50
2022-12-04T06:16:42.821Z,10.32
2022-12-04T06:19:13.113Z,21.05
2022-12-04T06:21:42.065Z,18.75
2022-12-04T06:24:12.565Z,32.85
2022-12-04T06:26:57.590Z,25.88
2022-12-04T06:29:28.013Z,19.42
2022-12-04T06:31:54.997Z,13.88
2022-12-04T06:34:22.020Z,16.77
2022-12-04T06:36:49.169Z,18.05
2022-12-04T06:39:18.956Z,15.13
2022-12-04T06:41:47.602Z,12.50
2022-12-04T06:44:15.348Z,13.68
2022-12-04T06:46:47.114Z,11.68
2022-12-04T06:49:14.659Z,11.73
2022-12-04T06:51:41.913Z,10.38
2022-12-04T06:54:09.665Z,10.75
2022-12-04T06:56:36.729Z,10.30
2022-12-04T06:59:04.610Z,10.85
2022-12-04T07:01:33.744Z,11.38
2022-12-04T07:04:04.418Z,10.88
2022-12-04T07:06:33.226Z,10.35
2022-12-04T07:09:03.162Z,9.65
2022-12-04T07:11:32.754Z,9.18
2022-12-04T07:14:00.530Z,8.65
2022-12-04T07:16:29.471Z,9.13
2022-12-04T07:18:57.515Z,8.80
2022-12-04T07:21:28.162Z,10.30
2022-12-04T07:23:56.922Z,9.40
2022-12-04T07:26:24.805Z,8.95
2022-12-04T07:28:52.435Z,10.02
2022-12-04T07:31:21.742Z,8.98
2022-12-04T07:33:49.720Z,17.67
2022-12-04T07:36:19.506Z,10.95
2022-12-04T07:38:48.342Z,9.85
2022-12-04T07:41:15.923Z,9.27
2022-12-04T07:43:43.306Z,8.02
2022-12-04T07:46:13.813Z,8.38
2022-12-04T07:48:41.219Z,9.48
2022-12-04T07:51:10.203Z,9.23
2022-12-04T07:53:37.962Z,9.27
2022-12-04T07:56:08.051Z,8.90
2022-12-04T07:58:35.638Z,9.57
2022-12-04T08:01:08.133Z,8.38
2022-12-04T08:03:35.372Z,13.23
2022-12-04T08:06:02.754Z,17.08
2022-12-04T08:08:30.097Z,9.98
2022-12-04T08:10:57.346Z,25.98
2022-12-04T08:13:26.168Z,11.38
2022-12-04T08:15:53.278Z,14.85
2022-12-04T08:18:20.413Z,13.10
2022-12-04T08:20:48.207Z,17.77
2022-12-04T08:23:16.330Z,17.25
2022-12-04T08:25:43.743Z,15.48
2022-12-04T08:28:12.034Z,12.70
2022-12-04T08:30:41.101Z,13.77
2022-12-04T08:33:08.847Z,8.32
2022-12-04T08:35:37.220Z,9.18
2022-12-04T08:38:05.509Z,11.70
2022-12-04T08:40:33.876Z,10.35
2022-12-04T08:43:01.216Z,9.73
2022-12-04T08:45:28.662Z,9.73
2022-12-04T08:47:58.046Z,9.20
2022-12-04T08:50:25.787Z,8.02
2022-12-04T08:52:53.442Z,8.23
2022-12-04T08:55:20.595Z,11.50
2022-12-04T08:57:48.878Z,9.20
2022-12-04T09:00:17.493Z,8.90
2022-12-04T09:02:45.634Z,11.07
2022-12-04T09:05:14.388Z,13.95
2022-12-04T09:07:42.126Z,13.10
2022-12-04T09:10:11.570Z,13.10
2022-12-04T09:12:39.580Z,10.68
2022-12-04T09:15:09.150Z,12.75
2022-12-04T09:17:37.660Z,9.45
2022-12-04T09:20:07.062Z,11.93
2022-12-04T09:23:02.420Z,10.45
2022-12-04T09:25:25.486Z,15.85
2022-12-04T09:27:53.467Z,9.52
2022-12-04T09:30:21.269Z,9.75
2022-12-04T09:32:48.999Z,8.80
2022-12-04T09:35:17.365Z,8.98
2022-12-04T09:37:49.748Z,7.88
2022-12-04T09:40:29.512Z,8.68
2022-12-04T09:43:05.414Z,8.18
2022-12-04T09:45:42.940Z,9.25
2022-12-04T09:48:13.361Z,8.57
2022-12-04T09:50:44.672Z,9.15
2022-12-04T09:53:16.953Z,10.45
2022-12-04T09:55:48.696Z,9.40
2022-12-04T09:58:22.325Z,7.60
2022-12-04T10:00:52.392Z,8.68
2022-12-04T10:03:22.431Z,8.95
2022-12-04T10:06:00.132Z,9.73
2022-12-04T10:08:33.184Z,7.78
2022-12-04T10:11:09.706Z,8.05
2022-12-04T10:14:02.643Z,9.02
2022-12-04T10:16:42.898Z,7.97
2022-12-04T10:19:18.100Z,8.80
2022-12-04T10:21:58.223Z,8.80
2022-12-04T10:24:38.577Z,17.30
2022-12-04T10:27:12.645Z,15.15
2022-12-04T10:29:43.245Z,12.60
2022-12-04T10:32:21.582Z,15.88
2022-12-04T10:34:51.485Z,12.50
2022-12-04T10:37:19.826Z,12.77
2022-12-04T10:39:55.345Z,11.25
2022-12-04T10:42:34.446Z,13.27
2022-12-04T10:45:02.972Z,13.48
2022-12-04T10:47:31.467Z,12.40
2022-12-04T10:50:03.776Z,6.07
2022-12-04T10:52:32.530Z,7.75
2022-12-04T10:55:03.416Z,9.23
2022-12-04T10:57:39.864Z,7.32
2022-12-04T11:00:28.443Z,8.25
2022-12-04T11:02:59.817Z,7.55
2022-12-04T11:05:32.732Z,7.53
2022-12-04T11:08:04.633Z,6.28
2022-12-04T11:10:38.056Z,7.20
2022-12-04T11:13:15.453Z,7.03
2022-12-04T11:15:46.726Z,6.05
2022-12-04T11:18:19.708Z,8.27
2022-12-04T11:20:54.132Z,6.20
2022-12-04T11:23:23.389Z,6.27
2022-12-04T11:26:02.108Z,6.35
2022-12-04T11:28:43.115Z,5.13
2022-12-04T11:31:18.051Z,6.30
2022-12-04T11:33:49.208Z,5.32
2022-12-04T11:36:24.032Z,5.80
2022-12-04T11:38:54.064Z,5.18
2022-12-04T11:41:29.720Z,5.75
2022-12-04T11:44:00.617Z,4.80
2022-12-04T11:46:32.207Z,4.78
2022-12-04T11:49:01.145Z,4.88
2022-12-04T11:51:42.966Z,5.50
2022-12-04T11:54:23.772Z,6.30
2022-12-04T11:57:01.523Z,5.20
2022-12-04T11:59:46.878Z,4.65
2022-12-04T12:02:35.573Z,5.15
2022-12-04T12:05:15.608Z,4.55
2022-12-04T12:07:53.018Z,5.47
2022-12-04T12:10:30.042Z,4.63
2022-12-04T12:13:08.254Z,8.75
2022-12-04T12:15:46.003Z,6.63
2022-12-04T12:18:32.540Z,6.80
2022-12-04T12:21:06.369Z,7.00
2022-12-04T12:23:57.351Z,10.00
2022-12-04T12:26:31.147Z,7.28
2022-12-04T12:29:17.944Z,9.90
2022-12-04T12:32:05.775Z,7.13
2022-12-04T12:34:40.732Z,6.00
2022-12-04T12:37:17.581Z,8.02
2022-12-04T12:39:51.670Z,7.32
2022-12-04T12:42:27.863Z,6.63
2022-12-04T12:45:05.274Z,5.53
2022-12-04T12:47:42.053Z,4.93
2022-12-04T12:50:17.273Z,6.13
2022-12-04T12:52:54.117Z,6.40
2022-12-04T12:55:26.381Z,6.13
2022-12-04T12:58:02.009Z,7.28
2022-12-04T13:00:37.207Z,6.13
2022-12-04T13:03:13.995Z,6.40
2022-12-04T13:05:47.287Z,7.68
2022-12-04T13:08:23.442Z,5.10
2022-12-04T13:10:59.991Z,7.10
2022-12-04T13:13:31.671Z,8.10
2022-12-04T13:16:08.365Z,6.10
2022-12-04T13:18:44.175Z,5.97
2022-12-04T13:21:29.054Z,6.68
2022-12-04T13:24:15.714Z,7.10
2022-12-04T13:26:50.000Z,7.40
2022-12-04T13:29:32.637Z,7.20
2022-12-04T13:32:09.790Z,7.80
2022-12-04T13:34:52.553Z,7.35
2022-12-04T13:37:35.647Z,9.35
2022-12-04T13:40:35.220Z,6.72
2022-12-04T13:43:17.832Z,8.43
2022-12-04T13:45:48.683Z,8.20
2022-12-04T13:48:29.379Z,7.05
2022-12-04T13:51:22.938Z,7.63
2022-12-04T13:54:03.353Z,8.02
2022-12-04T13:56:33.004Z,7.85
2022-12-04T13:59:03.929Z,9.60
2022-12-04T14:01:44.951Z,8.15
2022-12-04T14:04:26.302Z,7.80
2022-12-04T14:06:56.465Z,7.82
2022-12-04T14:09:29.504Z,7.82
2022-12-04T14:12:03.948Z,7.18
2022-12-04T14:14:42.923Z,7.73
2022-12-04T14:17:20.361Z,7.18
2022-12-04T14:19:56.305Z,7.63
2022-12-04T14:22:40.128Z,6.88
2022-12-04T14:25:21.510Z,8.48
2022-12-04T14:27:53.684Z,8.88
2022-12-04T14:30:24.774Z,7.45
2022-12-04T14:32:59.405Z,9.50
2022-12-04T14:35:29.225Z,10.50
2022-12-04T14:37:59.333Z,7.88
2022-12-04T14:40:28.810Z,8.15
2022-12-04T14:42:56.102Z,8.10
2022-12-04T14:45:32.433Z,9.15
2022-12-04T14:48:17.741Z,8.30
2022-12-04T14:50:51.924Z,8.20
2022-12-04T14:53:30.031Z,8.77
2022-12-04T14:56:07.834Z,8.52
2022-12-04T14:58:38.587Z,9.00
2022-12-04T15:01:16.512Z,7.70
2022-12-04T15:03:46.237Z,8.63
2022-12-04T15:06:25.946Z,7.97
2022-12-04T15:09:14.406Z,9.00
2022-12-04T15:12:04.883Z,10.02
2022-12-04T15:14:40.809Z,10.15
2022-12-04T15:17:11.290Z,10.05
2022-12-04T15:19:39.176Z,10.40
2022-12-04T15:22:12.089Z,10.70
2022-12-04T15:24:39.541Z,12.10
2022-12-04T15:27:07.110Z,19.73
2022-12-04T15:29:38.261Z,10.20
2022-12-04T15:32:10.869Z,10.00
2022-12-04T15:34:42.284Z,10.18
2022-12-04T15:37:18.853Z,9.27
2022-12-04T15:39:46.833Z,8.88
2022-12-04T15:42:17.388Z,10.38
2022-12-04T15:44:52.622Z,12.75
2022-12-04T15:47:22.523Z,11.30
2022-12-04T15:49:49.800Z,10.63
2022-12-04T15:52:20.633Z,10.18
2022-12-04T15:54:53.922Z,9.68
2022-12-04T15:57:26.730Z,8.80
2022-12-04T15:59:55.200Z,8.60
2022-12-04T16:02:28.194Z,8.98
2022-12-04T16:04:55.196Z,9.30
2022-12-04T16:07:26.705Z,9.75
2022-12-04T16:10:02.810Z,9.18
2022-12-04T16:12:32.369Z,7.97
2022-12-04T16:14:59.343Z,8.50
2022-12-04T16:17:30.867Z,8.40
2022-12-04T16:19:59.093Z,8.68
2022-12-04T16:22:27.518Z,8.40
2022-12-04T16:24:56.451Z,10.05
2022-12-04T16:27:25.542Z,10.27
2022-12-04T16:29:53.237Z,9.27
2022-12-04T16:32:22.249Z,9.18
2022-12-04T16:34:49.360Z,9.05
2022-12-04T16:37:19.347Z,9.15
2022-12-04T16:39:48.307Z,8.60
2022-12-04T16:42:18.085Z,8.85
2022-12-04T16:44:45.353Z,10.27
2022-12-04T16:47:13.277Z,10.48
2022-12-04T16:49:41.178Z,13.57
2022-12-04T16:52:09.587Z,11.02
2022-12-04T16:54:36.750Z,11.07
2022-12-04T16:57:05.295Z,10.52
2022-12-04T16:59:32.809Z,10.18
2022-12-04T17:02:00.566Z,6.75
2022-12-04T17:04:27.636Z,8.88
2022-12-04T17:06:55.205Z,9.23
2022-12-04T17:09:22.164Z,8.57
2022-12-04T17:11:49.193Z,8.30
2022-12-04T17:14:17.547Z,7.47
2022-12-04T17:16:47.100Z,8.02
2022-12-04T17:19:14.681Z,7.82
2022-12-04T17:21:41.918Z,8.85
2022-12-04T17:24:09.319Z,8.75
2022-12-04T17:26:36.449Z,9.68
2022-12-04T17:29:03.889Z,9.63
2022-12-04T17:31:32.375Z,10.50
2022-12-04T17:33:59.464Z,13.00
2022-12-04T17:36:27.889Z,9.80
2022-12-04T17:38:56.214Z,10.07
2022-12-04T17:41:24.080Z,8.90
2022-12-04T17:43:51.093Z,14.80
2022-12-04T17:46:21.737Z,9.18
2022-12-04T17:48:51.217Z,7.65
2022-12-04T17:51:20.744Z,10.52
2022-12-04T17:53:48.392Z,9.70
2022-12-04T17:56:18.525Z,9.82
2022-12-04T17:58:46.179Z,11.50
2022-12-04T18:01:14.940Z,9.50
2022-12-04T18:03:43.428Z,8.40
2022-12-04T18:06:17.561Z,7.78
2022-12-04T18:08:49.834Z,8.40
2022-12-04T18:11:18.756Z,6.47
2022-12-04T18:13:45.727Z,8.70
2022-12-04T18:16:13.340Z,7.47
2022-12-04T18:18:40.932Z,9.07
2022-12-04T18:21:10.713Z,8.75
2022-12-04T18:23:45.028Z,8.05
2022-12-04T18:26:13.312Z,7.65
2022-12-04T18:28:40.287Z,6.65
2022-12-04T18:31:08.297Z,7.25
2022-12-04T18:33:36.801Z,7.93
2022-12-04T18:36:09.428Z,8.25
2022-12-04T18:38:36.605Z,11.20
2022-12-04T18:41:06.829Z,12.15
2022-12-04T18:43:35.093Z,10.65
2022-12-04T18:46:07.656Z,9.80
2022-12-04T18:48:35.850Z,9.07
2022-12-04T18:51:14.111Z,9.18
2022-12-04T18:53:41.321Z,8.82
2022-12-04T18:56:09.663Z,9.85
2022-12-04T18:58:37.053Z,9.75
2022-12-04T19:01:07.918Z,9.52
2022-12-04T19:03:35.446Z,9.77
2022-12-04T19:06:03.164Z,9.18
2022-12-04T19:08:33.723Z,9.30
2022-12-04T19:11:06.620Z,10.25
2022-12-04T19:13:35.372Z,9.27
2022-12-04T19:16:02.897Z,8.77
2022-12-04T19:18:30.413Z,7.80
2022-12-04T19:20:57.753Z,8.77
2022-12-04T19:23:24.835Z,11.40
2022-12-04T19:25:56.079Z,12.48
2022-12-04T19:28:23.822Z,9.80
2022-12-04T19:30:52.482Z,10.15
2022-12-04T19:33:19.834Z,12.25
2022-12-04T19:35:56.405Z,10.43
2022-12-04T19:38:23.466Z,10.23
2022-12-04T19:40:50.402Z,12.35
2022-12-04T19:43:17.431Z,13.00
2022-12-04T19:45:48.002Z,9.40
2022-12-04T19:48:16.362Z,9.27
2022-12-04T19:50:43.458Z,12.00
2022-12-04T19:53:10.393Z,10.25
2022-12-04T19:55:37.698Z,10.75
2022-12-04T19:58:04.754Z,9.93
2022-12-04T20:00:31.826Z,9.15
2022-12-04T20:02:58.935Z,11.65
2022-12-04T20:05:27.382Z,12.43
2022-12-04T20:07:55.687Z,10.02
2022-12-04T20:10:22.918Z,10.70
2022-12-04T20:12:50.373Z,10.23
2022-12-04T20:15:17.441Z,8.55
2022-12-04T20:17:44.467Z,8.15
2022-12-04T20:20:11.818Z,8.48
2022-12-04T20:22:40.214Z,8.65
2022-12-04T20:25:07.901Z,8.85
2022-12-04T20:27:34.986Z,9.02
2022-12-04T20:30:02.000Z,9.00
2022-12-04T20:32:28.959Z,8.50
2022-12-04T20:34:55.960Z,8.85
2022-12-04T20:37:22.922Z,8.90
2022-12-04T20:39:51.225Z,8.82
2022-12-04T20:42:18.458Z,7.82
2022-12-04T20:44:45.516Z,7.47
2022-12-04T20:47:12.583Z,8.10
2022-12-04T20:49:39.629Z,8.20
2022-12-04T20:52:06.680Z,7.78
2022-12-04T20:54:41.034Z,8.82
2022-12-04T20:57:10.507Z,7.78
2022-12-04T20:59:37.589Z,9.10
2022-12-04T21:02:04.643Z,7.50
2022-12-04T21:04:35.139Z,8.30
2022-12-04T21:07:02.167Z,7.72
2022-12-04T21:09:29.341Z,7.72
2022-12-04T21:11:56.639Z,7.30
2022-12-04T21:14:46.134Z,7.25
2022-12-04T21:17:18.474Z,7.40
2022-12-04T21:19:46.473Z,6.43
2022-12-04T21:22:13.965Z,6.28
2022-12-04T21:24:42.246Z,7.18
2022-12-04T21:27:11.565Z,7.25
2022-12-04T21:29:41.953Z,8.05
2022-12-04T21:32:09.141Z,8.07
2022-12-04T21:34:36.137Z,7.28
2022-12-04T21:37:03.643Z,6.18
2022-12-04T21:39:30.713Z,5.43
2022-12-04T21:42:16.012Z,5.57
2022-12-04T21:44:44.475Z,5.38
2022-12-04T21:47:11.450Z,5.47
2022-12-04T21:49:38.605Z,5.70
2022-12-04T21:52:05.558Z,5.90
2022-12-04T21:54:32.553Z,4.55
2022-12-04T21:56:59.519Z,5.05
2022-12-04T21:59:26.755Z,4.95
2022-12-04T22:01:55.168Z,5.55
2022-12-04T22:04:22.557Z,5.03
2022-12-04T22:06:49.995Z,5.15
2022-12-04T22:09:17.389Z,4.78
2022-12-04T22:11:44.413Z,4.95
2022-12-04T22:14:12.039Z,4.53
2022-12-04T22:16:42.810Z,5.10
2022-12-04T22:19:12.437Z,4.35
2022-12-04T22:21:40.257Z,4.10
2022-12-04T22:24:08.181Z,4.80
2022-12-04T22:26:35.238Z,4.60
2022-12-04T22:29:11.283Z,4.95
2022-12-04T22:31:49.825Z,4.10
2022-12-04T22:34:18.221Z,3.53
2022-12-04T22:36:45.125Z,4.10
2022-12-04T22:39:12.181Z,4.57
2022-12-04T22:41:39.394Z,4.15
2022-12-04T22:44:06.409Z,3.30
2022-12-04T22:46:33.864Z,3.60
2022-12-04T22:49:01.213Z,3.85
2022-12-04T22:51:29.641Z,3.90
2022-12-04T22:53:57.912Z,4.00
2022-12-04T22:56:26.781Z,4.10
2022-12-04T22:58:54.572Z,4.00
2022-12-04T23:01:23.737Z,4.03
2022-12-04T23:03:51.224Z,3.58
2022-12-04T23:06:20.038Z,3.33
2022-12-04T23:08:48.925Z,3.80
2022-12-04T23:11:18.248Z,3.88
2022-12-04T23:13:50.316Z,4.50
2022-12-04T23:16:20.395Z,4.15
2022-12-04T23:18:47.896Z,4.03
2022-12-04T23:21:16.193Z,3.60
2022-12-04T23:23:46.965Z,3.63
2022-12-04T23:26:18.735Z,3.85
2022-12-04T23:28:46.221Z,3.58
2022-12-04T23:31:13.535Z,3.40
2022-12-04T23:33:41.023Z,3.63
2022-12-04T23:36:10.984Z,3.20
2022-12-04T23:38:39.431Z,3.20
2022-12-04T23:41:08.674Z,3.30
2022-12-04T23:43:37.448Z,3.22
2022-12-04T23:46:10.711Z,2.92
2022-12-04T23:48:39.040Z,3.10
2022-12-04T23:51:06.884Z,3.50
2022-12-04T23:53:33.862Z,3.53
2022-12-04T23:56:07.081Z,3.35
2022-12-04T23:58:36.391Z,3.17
